Kenton, Kentucky
Current Conditions -  °F | °C
As of 10:53 PM on Wednesday 22 Oct 2014 (Local Time) from KLUK Reporting Station
Overcast Overcast  
Wind Chill: 50°   Ceiling: 2700
Heat Index: 50°   Visibility: 10mi
Dew Point: 40°   Wind: 8mph
Humidity: 68%   Direction: 40°NE
Pressure: 30.29"   Gusts: NA
Location:  38.87°N, 84.46°W
Report Text: KLUK 230253Z 04007KT 10SM OVC027 10/04 A3029 RMK AO2 SLP257 T01000044 50000
Loading
Personal Weather Stations






























Interactive Weather Map New forecast layout! Learn more

10-Day Weather Forecast

Advertisements
Track Severe Weather on mobile